sensor_id;sensor_type;location;lat;lon;timestamp;P1;durP1;ratioP1;P2;durP2;ratioP2
76846;SDS011;65813;49.546;8.644;2023-09-19T03:48:29;3.40;;;1.45;;
76846;SDS011;65813;49.546;8.644;2023-09-19T03:52:29;4.57;;;1.60;;
76846;SDS011;65813;49.546;8.644;2023-09-19T03:56:30;3.47;;;1.57;;
76846;SDS011;65813;49.546;8.644;2023-09-19T04:00:31;4.63;;;2.00;;
76846;SDS011;65813;49.546;8.644;2023-09-19T04:04:32;4.45;;;1.58;;
76846;SDS011;65813;49.546;8.644;2023-09-19T04:08:32;5.00;;;1.70;;
76846;SDS011;65813;49.546;8.644;2023-09-19T04:12:32;5.00;;;1.90;;
76846;SDS011;65813;49.546;8.644;2023-09-19T04:16:33;4.10;;;1.90;;
76846;SDS011;65813;49.546;8.644;2023-09-19T04:20:33;4.20;;;1.80;;
76846;SDS011;65813;49.546;8.644;2023-09-19T04:24:33;5.20;;;1.97;;
76846;SDS011;65813;49.546;8.644;2023-09-19T04:28:34;3.78;;;1.70;;
76846;SDS011;65813;49.546;8.644;2023-09-19T04:32:38;7.00;;;2.08;;
76846;SDS011;65813;49.546;8.644;2023-09-19T04:36:42;3.80;;;1.67;;
76846;SDS011;65813;49.546;8.644;2023-09-19T04:40:43;5.80;;;1.90;;
76846;SDS011;65813;49.546;8.644;2023-09-19T04:44:55;4.67;;;1.80;;
76846;SDS011;65813;49.546;8.644;2023-09-19T04:48:55;3.72;;;1.85;;
76846;SDS011;65813;49.546;8.644;2023-09-19T04:52:56;4.17;;;1.60;;
76846;SDS011;65813;49.546;8.644;2023-09-19T04:56:56;5.70;;;1.90;;
76846;SDS011;65813;49.546;8.644;2023-09-19T05:00:56;4.90;;;1.60;;
76846;SDS011;65813;49.546;8.644;2023-09-19T05:04:57;4.90;;;1.60;;
76846;SDS011;65813;49.546;8.644;2023-09-19T05:09:00;4.05;;;1.70;;
76846;SDS011;65813;49.546;8.644;2023-09-19T05:13:00;7.27;;;1.90;;
76846;SDS011;65813;49.546;8.644;2023-09-19T05:17:01;4.15;;;1.92;;
76846;SDS011;65813;49.546;8.644;2023-09-19T05:21:03;5.35;;;1.92;;
76846;SDS011;65813;49.546;8.644;2023-09-19T05:25:03;4.43;;;1.70;;
76846;SDS011;65813;49.546;8.644;2023-09-19T05:29:04;5.10;;;2.03;;
76846;SDS011;65813;49.546;8.644;2023-09-19T05:33:05;4.70;;;1.70;;
76846;SDS011;65813;49.546;8.644;2023-09-19T05:37:06;7.60;;;2.20;;
76846;SDS011;65813;49.546;8.644;2023-09-19T05:41:07;5.95;;;2.20;;
76846;SDS011;65813;49.546;8.644;2023-09-19T05:45:09;6.20;;;2.00;;
76846;SDS011;65813;49.546;8.644;2023-09-19T05:49:12;5.35;;;2.15;;
76846;SDS011;65813;49.546;8.644;2023-09-19T05:53:13;6.17;;;2.23;;
76846;SDS011;65813;49.546;8.644;2023-09-19T05:57:14;5.50;;;1.80;;
76846;SDS011;65813;49.546;8.644;2023-09-19T06:01:15;5.60;;;2.30;;
76846;SDS011;65813;49.546;8.644;2023-09-19T06:05:15;5.77;;;2.00;;
76846;SDS011;65813;49.546;8.644;2023-09-19T06:09:15;4.00;;;2.20;;
76846;SDS011;65813;49.546;8.644;2023-09-19T06:13:16;5.03;;;1.87;;
76846;SDS011;65813;49.546;8.644;2023-09-19T06:17:16;7.33;;;2.23;;
76846;SDS011;65813;49.546;8.644;2023-09-19T06:21:17;4.05;;;1.88;;
76846;SDS011;65813;49.546;8.644;2023-09-19T06:25:18;4.78;;;1.88;;
76846;SDS011;65813;49.546;8.644;2023-09-19T06:29:19;5.22;;;1.73;;
76846;SDS011;65813;49.546;8.644;2023-09-19T06:33:20;5.07;;;1.67;;
76846;SDS011;65813;49.546;8.644;2023-09-19T06:37:21;5.43;;;1.90;;
76846;SDS011;65813;49.546;8.644;2023-09-19T06:41:22;6.95;;;2.08;;
76846;SDS011;65813;49.546;8.644;2023-09-19T06:45:24;7.47;;;2.05;;
76846;SDS011;65813;49.546;8.644;2023-09-19T06:49:26;5.40;;;2.15;;
76846;SDS011;65813;49.546;8.644;2023-09-19T06:53:29;7.22;;;1.90;;
76846;SDS011;65813;49.546;8.644;2023-09-19T06:57:31;5.47;;;2.33;;
76846;SDS011;65813;49.546;8.644;2023-09-19T07:01:32;5.97;;;2.10;;
76846;SDS011;65813;49.546;8.644;2023-09-19T07:05:34;4.70;;;2.00;;
76846;SDS011;65813;49.546;8.644;2023-09-19T07:09:39;7.10;;;2.35;;
76846;SDS011;65813;49.546;8.644;2023-09-19T07:13:39;7.15;;;2.00;;
76846;SDS011;65813;49.546;8.644;2023-09-19T07:17:39;6.53;;;1.90;;
76846;SDS011;65813;49.546;8.644;2023-09-19T07:21:40;4.60;;;1.80;;
76846;SDS011;65813;49.546;8.644;2023-09-19T07:25:40;5.97;;;1.65;;
76846;SDS011;65813;49.546;8.644;2023-09-19T07:29:41;6.35;;;2.00;;
76846;SDS011;65813;49.546;8.644;2023-09-19T07:33:41;5.55;;;1.90;;
76846;SDS011;65813;49.546;8.644;2023-09-19T07:37:42;3.55;;;1.58;;
76846;SDS011;65813;49.546;8.644;2023-09-19T07:41:43;4.82;;;1.98;;
76846;SDS011;65813;49.546;8.644;2023-09-19T07:45:43;5.43;;;1.67;;
76846;SDS011;65813;49.546;8.644;2023-09-19T07:49:46;5.10;;;1.85;;
76846;SDS011;65813;49.546;8.644;2023-09-19T07:53:47;7.40;;;2.03;;
76846;SDS011;65813;49.546;8.644;2023-09-19T07:57:48;5.00;;;2.15;;
76846;SDS011;65813;49.546;8.644;2023-09-19T08:01:49;4.07;;;1.95;;
76846;SDS011;65813;49.546;8.644;2023-09-19T08:05:49;4.60;;;1.97;;
76846;SDS011;65813;49.546;8.644;2023-09-19T08:09:49;5.17;;;1.90;;
76846;SDS011;65813;49.546;8.644;2023-09-19T08:14:05;4.77;;;1.87;;
76846;SDS011;65813;49.546;8.644;2023-09-19T08:18:52;3.50;;;1.50;;
76846;SDS011;65813;49.546;8.644;2023-09-19T08:22:54;4.40;;;1.80;;
76846;SDS011;65813;49.546;8.644;2023-09-19T08:26:55;5.45;;;1.70;;
76846;SDS011;65813;49.546;8.644;2023-09-19T08:31:00;7.82;;;2.03;;
76846;SDS011;65813;49.546;8.644;2023-09-19T08:35:02;4.90;;;1.95;;
76846;SDS011;65813;49.546;8.644;2023-09-19T08:39:04;4.97;;;2.05;;
76846;SDS011;65813;49.546;8.644;2023-09-19T08:43:04;6.47;;;1.67;;
76846;SDS011;65813;49.546;8.644;2023-09-19T08:47:10;4.57;;;1.90;;
76846;SDS011;65813;49.546;8.644;2023-09-19T08:51:18;5.25;;;1.67;;
76846;SDS011;65813;49.546;8.644;2023-09-19T08:55:26;6.35;;;2.03;;
76846;SDS011;65813;49.546;8.644;2023-09-19T08:59:28;5.07;;;1.83;;
76846;SDS011;65813;49.546;8.644;2023-09-19T09:03:31;5.28;;;1.83;;
76846;SDS011;65813;49.546;8.644;2023-09-19T09:07:33;4.43;;;1.75;;
76846;SDS011;65813;49.546;8.644;2023-09-19T09:11:35;4.32;;;2.15;;
76846;SDS011;65813;49.546;8.644;2023-09-19T09:19:41;6.20;;;2.60;;
76846;SDS011;65813;49.546;8.644;2023-09-19T09:23:43;4.03;;;1.98;;
76846;SDS011;65813;49.546;8.644;2023-09-19T09:27:43;5.37;;;2.00;;
76846;SDS011;65813;49.546;8.644;2023-09-19T09:31:58;4.43;;;1.90;;
76846;SDS011;65813;49.546;8.644;2023-09-19T09:36:36;5.88;;;2.00;;
76846;SDS011;65813;49.546;8.644;2023-09-19T09:40:47;6.28;;;2.30;;
76846;SDS011;65813;49.546;8.644;2023-09-19T09:45:06;5.78;;;2.15;;
76846;SDS011;65813;49.546;8.644;2023-09-19T09:49:12;4.65;;;1.50;;
76846;SDS011;65813;49.546;8.644;2023-09-19T09:53:25;4.72;;;1.60;;
76846;SDS011;65813;49.546;8.644;2023-09-19T09:57:32;5.22;;;1.88;;
76846;SDS011;65813;49.546;8.644;2023-09-19T10:01:46;4.75;;;1.65;;
76846;SDS011;65813;49.546;8.644;2023-09-19T10:05:57;3.97;;;1.95;;
76846;SDS011;65813;49.546;8.644;2023-09-19T10:10:09;5.35;;;2.33;;
76846;SDS011;65813;49.546;8.644;2023-09-19T10:14:16;4.22;;;1.80;;
76846;SDS011;65813;49.546;8.644;2023-09-19T10:18:20;4.22;;;1.70;;
76846;SDS011;65813;49.546;8.644;2023-09-19T10:22:21;5.57;;;1.90;;
76846;SDS011;65813;49.546;8.644;2023-09-19T10:26:22;5.25;;;1.70;;
76846;SDS011;65813;49.546;8.644;2023-09-19T10:30:24;5.70;;;1.92;;
76846;SDS011;65813;49.546;8.644;2023-09-19T10:34:30;6.45;;;1.55;;
76846;SDS011;65813;49.546;8.644;2023-09-19T10:38:31;6.03;;;1.70;;
76846;SDS011;65813;49.546;8.644;2023-09-19T10:42:33;5.65;;;1.90;;
76846;SDS011;65813;49.546;8.644;2023-09-19T10:50:43;5.28;;;1.80;;
76846;SDS011;65813;49.546;8.644;2023-09-19T10:54:50;5.10;;;1.60;;
76846;SDS011;65813;49.546;8.644;2023-09-19T10:59:17;4.32;;;1.63;;
76846;SDS011;65813;49.546;8.644;2023-09-19T11:03:18;4.00;;;1.13;;
76846;SDS011;65813;49.546;8.644;2023-09-19T11:07:20;3.70;;;1.42;;
76846;SDS011;65813;49.546;8.644;2023-09-19T11:11:54;3.05;;;1.33;;
76846;SDS011;65813;49.546;8.644;2023-09-19T11:32:54;3.65;;;1.10;;
76846;SDS011;65813;49.546;8.644;2023-09-19T11:37:02;3.85;;;1.33;;
76846;SDS011;65813;49.546;8.644;2023-09-19T11:49:40;3.00;;;1.10;;
76846;SDS011;65813;49.546;8.644;2023-09-19T11:53:40;3.47;;;1.25;;
76846;SDS011;65813;49.546;8.644;2023-09-19T11:57:44;3.78;;;1.10;;
76846;SDS011;65813;49.546;8.644;2023-09-19T12:01:50;3.63;;;1.13;;
76846;SDS011;65813;49.546;8.644;2023-09-19T12:05:51;2.33;;;1.00;;
76846;SDS011;65813;49.546;8.644;2023-09-19T12:10:02;3.93;;;1.20;;
76846;SDS011;65813;49.546;8.644;2023-09-19T12:14:04;4.03;;;1.50;;
76846;SDS011;65813;49.546;8.644;2023-09-19T12:18:04;4.40;;;1.40;;
76846;SDS011;65813;49.546;8.644;2023-09-19T12:22:05;3.05;;;1.00;;
76846;SDS011;65813;49.546;8.644;2023-09-19T12:26:06;2.10;;;1.05;;
76846;SDS011;65813;49.546;8.644;2023-09-19T12:30:13;4.10;;;1.10;;
76846;SDS011;65813;49.546;8.644;2023-09-19T12:34:19;3.50;;;1.45;;
76846;SDS011;65813;49.546;8.644;2023-09-19T12:38:27;5.55;;;1.55;;
76846;SDS011;65813;49.546;8.644;2023-09-19T12:42:28;2.55;;;1.20;;
76846;SDS011;65813;49.546;8.644;2023-09-19T12:46:29;3.13;;;1.13;;
76846;SDS011;65813;49.546;8.644;2023-09-19T12:50:32;3.78;;;1.38;;
76846;SDS011;65813;49.546;8.644;2023-09-19T12:54:39;5.00;;;1.42;;
76846;SDS011;65813;49.546;8.644;2023-09-19T13:07:43;2.92;;;1.15;;
76846;SDS011;65813;49.546;8.644;2023-09-19T13:11:45;3.67;;;1.30;;
76846;SDS011;65813;49.546;8.644;2023-09-19T13:15:51;6.43;;;1.10;;
76846;SDS011;65813;49.546;8.644;2023-09-19T13:19:52;4.22;;;1.40;;
76846;SDS011;65813;49.546;8.644;2023-09-19T13:23:55;2.97;;;1.25;;
76846;SDS011;65813;49.546;8.644;2023-09-19T13:28:01;4.20;;;1.35;;
76846;SDS011;65813;49.546;8.644;2023-09-19T13:32:05;4.10;;;1.02;;
76846;SDS011;65813;49.546;8.644;2023-09-19T13:36:05;2.87;;;1.20;;
76846;SDS011;65813;49.546;8.644;2023-09-19T13:40:06;3.03;;;1.07;;
76846;SDS011;65813;49.546;8.644;2023-09-19T13:44:13;4.25;;;1.33;;
76846;SDS011;65813;49.546;8.644;2023-09-19T13:48:14;3.55;;;1.25;;
76846;SDS011;65813;49.546;8.644;2023-09-19T13:52:14;3.30;;;1.30;;
76846;SDS011;65813;49.546;8.644;2023-09-19T13:56:15;4.67;;;1.27;;
76846;SDS011;65813;49.546;8.644;2023-09-19T14:00:15;5.00;;;1.30;;
76846;SDS011;65813;49.546;8.644;2023-09-19T14:04:17;3.85;;;1.25;;
76846;SDS011;65813;49.546;8.644;2023-09-19T14:08:18;3.90;;;1.10;;
76846;SDS011;65813;49.546;8.644;2023-09-19T14:12:18;4.47;;;1.30;;
76846;SDS011;65813;49.546;8.644;2023-09-19T14:16:19;3.67;;;1.20;;
76846;SDS011;65813;49.546;8.644;2023-09-19T14:20:22;2.92;;;1.00;;
76846;SDS011;65813;49.546;8.644;2023-09-19T14:24:23;4.03;;;1.10;;
76846;SDS011;65813;49.546;8.644;2023-09-19T14:28:23;3.57;;;1.10;;
76846;SDS011;65813;49.546;8.644;2023-09-19T14:32:25;3.15;;;1.10;;
76846;SDS011;65813;49.546;8.644;2023-09-19T14:36:26;3.88;;;1.10;;
76846;SDS011;65813;49.546;8.644;2023-09-19T14:40:26;3.60;;;1.23;;
76846;SDS011;65813;49.546;8.644;2023-09-19T14:44:27;3.88;;;1.02;;
76846;SDS011;65813;49.546;8.644;2023-09-19T14:48:28;5.72;;;1.10;;
76846;SDS011;65813;49.546;8.644;2023-09-19T14:52:29;2.92;;;1.20;;
76846;SDS011;65813;49.546;8.644;2023-09-19T14:56:29;4.77;;;1.53;;
76846;SDS011;65813;49.546;8.644;2023-09-19T15:00:31;3.53;;;1.02;;
76846;SDS011;65813;49.546;8.644;2023-09-19T15:04:32;2.53;;;1.00;;
76846;SDS011;65813;49.546;8.644;2023-09-19T15:08:34;3.30;;;1.23;;
76846;SDS011;65813;49.546;8.644;2023-09-19T15:12:43;4.55;;;1.25;;
76846;SDS011;65813;49.546;8.644;2023-09-19T15:16:43;3.60;;;1.00;;
76846;SDS011;65813;49.546;8.644;2023-09-19T15:20:44;2.63;;;1.10;;
76846;SDS011;65813;49.546;8.644;2023-09-19T15:24:45;2.42;;;0.90;;
76846;SDS011;65813;49.546;8.644;2023-09-19T15:28:45;2.97;;;1.10;;
76846;SDS011;65813;49.546;8.644;2023-09-19T15:32:46;3.00;;;1.30;;
76846;SDS011;65813;49.546;8.644;2023-09-19T15:36:46;2.70;;;1.00;;
76846;SDS011;65813;49.546;8.644;2023-09-19T15:40:47;2.47;;;1.10;;
76846;SDS011;65813;49.546;8.644;2023-09-19T15:44:47;5.30;;;1.85;;
76846;SDS011;65813;49.546;8.644;2023-09-19T15:48:49;3.35;;;1.23;;
76846;SDS011;65813;49.546;8.644;2023-09-19T15:52:52;2.63;;;1.03;;
76846;SDS011;65813;49.546;8.644;2023-09-19T15:56:57;3.65;;;1.20;;
76846;SDS011;65813;49.546;8.644;2023-09-19T16:01:04;3.05;;;1.20;;
76846;SDS011;65813;49.546;8.644;2023-09-19T16:05:06;4.00;;;1.10;;
76846;SDS011;65813;49.546;8.644;2023-09-19T16:09:08;2.78;;;1.00;;
76846;SDS011;65813;49.546;8.644;2023-09-19T16:13:10;3.05;;;1.20;;
76846;SDS011;65813;49.546;8.644;2023-09-19T16:17:10;2.50;;;1.00;;
76846;SDS011;65813;49.546;8.644;2023-09-19T16:21:11;3.72;;;1.20;;
76846;SDS011;65813;49.546;8.644;2023-09-19T16:25:11;4.70;;;1.08;;
76846;SDS011;65813;49.546;8.644;2023-09-19T16:29:11;3.35;;;1.00;;
76846;SDS011;65813;49.546;8.644;2023-09-19T16:33:12;3.83;;;1.15;;
76846;SDS011;65813;49.546;8.644;2023-09-19T16:37:12;4.10;;;1.30;;
76846;SDS011;65813;49.546;8.644;2023-09-19T16:41:14;1.98;;;0.90;;
76846;SDS011;65813;49.546;8.644;2023-09-19T16:45:16;3.10;;;1.10;;
76846;SDS011;65813;49.546;8.644;2023-09-19T16:49:17;2.50;;;1.00;;
76846;SDS011;65813;49.546;8.644;2023-09-19T16:53:17;2.33;;;1.30;;
76846;SDS011;65813;49.546;8.644;2023-09-19T16:57:18;2.42;;;0.98;;
76846;SDS011;65813;49.546;8.644;2023-09-19T17:01:18;3.07;;;0.90;;
76846;SDS011;65813;49.546;8.644;2023-09-19T17:05:20;6.05;;;1.23;;
76846;SDS011;65813;49.546;8.644;2023-09-19T17:09:20;3.10;;;1.25;;
76846;SDS011;65813;49.546;8.644;2023-09-19T17:13:20;2.90;;;1.00;;
76846;SDS011;65813;49.546;8.644;2023-09-19T17:17:21;2.27;;;1.00;;
76846;SDS011;65813;49.546;8.644;2023-09-19T17:21:21;2.13;;;0.90;;
76846;SDS011;65813;49.546;8.644;2023-09-19T17:25:23;2.05;;;1.10;;
76846;SDS011;65813;49.546;8.644;2023-09-19T17:29:24;1.98;;;1.13;;
76846;SDS011;65813;49.546;8.644;2023-09-19T17:33:25;1.92;;;1.02;;
76846;SDS011;65813;49.546;8.644;2023-09-19T17:37:26;2.47;;;1.08;;
76846;SDS011;65813;49.546;8.644;2023-09-19T17:41:27;3.30;;;1.00;;
76846;SDS011;65813;49.546;8.644;2023-09-19T17:45:27;2.53;;;1.20;;
76846;SDS011;65813;49.546;8.644;2023-09-19T17:49:27;4.60;;;1.30;;
76846;SDS011;65813;49.546;8.644;2023-09-19T17:53:28;3.25;;;1.42;;
76846;SDS011;65813;49.546;8.644;2023-09-19T17:57:29;3.90;;;1.10;;
76846;SDS011;65813;49.546;8.644;2023-09-19T18:01:30;2.55;;;1.27;;
76846;SDS011;65813;49.546;8.644;2023-09-19T18:05:32;2.70;;;1.20;;
76846;SDS011;65813;49.546;8.644;2023-09-19T18:09:32;2.43;;;1.00;;
76846;SDS011;65813;49.546;8.644;2023-09-19T18:13:33;4.32;;;1.20;;
76846;SDS011;65813;49.546;8.644;2023-09-19T18:17:33;2.77;;;0.87;;
76846;SDS011;65813;49.546;8.644;2023-09-19T18:21:35;4.88;;;1.70;;
76846;SDS011;65813;49.546;8.644;2023-09-19T18:25:37;3.90;;;1.20;;
76846;SDS011;65813;49.546;8.644;2023-09-19T18:29:40;2.97;;;1.20;;
76846;SDS011;65813;49.546;8.644;2023-09-19T18:33:43;2.50;;;1.20;;
76846;SDS011;65813;49.546;8.644;2023-09-19T18:37:44;2.95;;;1.33;;
76846;SDS011;65813;49.546;8.644;2023-09-19T18:41:49;3.85;;;1.52;;
76846;SDS011;65813;49.546;8.644;2023-09-19T18:45:56;7.00;;;3.58;;
76846;SDS011;65813;49.546;8.644;2023-09-19T18:49:58;11.15;;;5.38;;
76846;SDS011;65813;49.546;8.644;2023-09-19T18:53:58;7.17;;;2.53;;
76846;SDS011;65813;49.546;8.644;2023-09-19T18:57:59;3.75;;;1.55;;
76846;SDS011;65813;49.546;8.644;2023-09-19T19:02:00;4.37;;;1.70;;
76846;SDS011;65813;49.546;8.644;2023-09-19T19:06:10;2.70;;;1.30;;
76846;SDS011;65813;49.546;8.644;2023-09-19T19:10:12;4.00;;;1.35;;
76846;SDS011;65813;49.546;8.644;2023-09-19T19:14:13;3.60;;;1.30;;
76846;SDS011;65813;49.546;8.644;2023-09-19T19:18:14;5.47;;;1.40;;
76846;SDS011;65813;49.546;8.644;2023-09-19T19:22:15;3.28;;;1.23;;
76846;SDS011;65813;49.546;8.644;2023-09-19T19:26:16;4.97;;;1.50;;
76846;SDS011;65813;49.546;8.644;2023-09-19T19:30:17;4.10;;;1.30;;
76846;SDS011;65813;49.546;8.644;2023-09-19T19:34:17;3.42;;;1.25;;
76846;SDS011;65813;49.546;8.644;2023-09-19T19:38:18;4.30;;;1.55;;
76846;SDS011;65813;49.546;8.644;2023-09-19T19:42:19;4.97;;;1.58;;
76846;SDS011;65813;49.546;8.644;2023-09-19T19:46:20;2.77;;;1.30;;
76846;SDS011;65813;49.546;8.644;2023-09-19T19:50:20;3.30;;;1.27;;
76846;SDS011;65813;49.546;8.644;2023-09-19T19:54:21;4.73;;;1.33;;
76846;SDS011;65813;49.546;8.644;2023-09-19T19:58:22;4.70;;;1.40;;
76846;SDS011;65813;49.546;8.644;2023-09-19T20:02:25;3.45;;;1.13;;
76846;SDS011;65813;49.546;8.644;2023-09-19T20:06:25;2.33;;;1.10;;
76846;SDS011;65813;49.546;8.644;2023-09-19T20:10:26;2.55;;;1.08;;
76846;SDS011;65813;49.546;8.644;2023-09-19T20:14:26;3.57;;;1.43;;
76846;SDS011;65813;49.546;8.644;2023-09-19T20:18:27;5.57;;;1.70;;
76846;SDS011;65813;49.546;8.644;2023-09-19T20:22:28;2.78;;;1.33;;
76846;SDS011;65813;49.546;8.644;2023-09-19T20:26:29;3.08;;;1.30;;
76846;SDS011;65813;49.546;8.644;2023-09-19T20:30:29;2.97;;;1.10;;
76846;SDS011;65813;49.546;8.644;2023-09-19T20:34:31;3.22;;;1.20;;
76846;SDS011;65813;49.546;8.644;2023-09-19T20:38:31;3.00;;;1.40;;
76846;SDS011;65813;49.546;8.644;2023-09-19T20:42:33;2.72;;;1.42;;
76846;SDS011;65813;49.546;8.644;2023-09-19T20:46:34;3.47;;;1.20;;
76846;SDS011;65813;49.546;8.644;2023-09-19T20:50:36;3.10;;;1.23;;
76846;SDS011;65813;49.546;8.644;2023-09-19T20:54:36;6.43;;;1.60;;
76846;SDS011;65813;49.546;8.644;2023-09-19T20:58:37;5.60;;;1.20;;
76846;SDS011;65813;49.546;8.644;2023-09-19T21:02:38;4.97;;;1.20;;
76846;SDS011;65813;49.546;8.644;2023-09-19T21:06:39;3.53;;;1.30;;
76846;SDS011;65813;49.546;8.644;2023-09-19T21:10:39;3.67;;;1.40;;
76846;SDS011;65813;49.546;8.644;2023-09-19T21:14:40;3.92;;;1.23;;
76846;SDS011;65813;49.546;8.644;2023-09-19T22:00:23;3.28;;;1.35;;
76846;SDS011;65813;49.546;8.644;2023-09-19T22:04:33;3.50;;;1.17;;
76846;SDS011;65813;49.546;8.644;2023-09-19T22:08:34;3.90;;;1.17;;
76846;SDS011;65813;49.546;8.644;2023-09-19T22:12:35;4.80;;;1.27;;
76846;SDS011;65813;49.546;8.644;2023-09-19T22:16:36;3.60;;;1.13;;
76846;SDS011;65813;49.546;8.644;2023-09-19T22:20:38;2.03;;;1.20;;
76846;SDS011;65813;49.546;8.644;2023-09-19T22:24:59;3.47;;;1.35;;
76846;SDS011;65813;49.546;8.644;2023-09-19T22:28:59;4.38;;;1.30;;
76846;SDS011;65813;49.546;8.644;2023-09-19T22:33:00;3.07;;;1.13;;
76846;SDS011;65813;49.546;8.644;2023-09-19T22:37:00;2.97;;;1.60;;
76846;SDS011;65813;49.546;8.644;2023-09-19T22:41:01;3.10;;;1.00;;
